SBI694 UNKL-UNNT
Flight info
| Callsign | SBI694 |
|---|---|
| Flight time | N/A |
| Altitude | 36000 |
| Route | APRUS2F APRUS B926 NATIR NATIR1P |
| Aircraft | B738/M-SDE2E3FGHIRWXY/LB1 |
Departure
| Time | 2026-05-01 15:12 |
|---|---|
| Airport | Krasnoyarsk International Airport (UNKL) |
Arrival
| Time | N/A |
|---|---|
| Airport | Novosibirsk Tolmachevo Airport (UNNT) |
| Time | Latitude | Longitude | Altitude | Speed | Heading |
|---|---|---|---|---|---|
| 2026-05-01 14:29 | 56.18168 | 92.47085 | 956 ft | 0 kts | 24° |
| 2026-05-01 15:01 | 56.18169 | 92.47085 | 956 ft | 0 kts | 24° |
| 2026-05-01 15:01 | 56.18183 | 92.47097 | 953 ft | 4 kts | 24° |
| 2026-05-01 15:01 | 56.18208 | 92.47133 | 954 ft | 5 kts | 66° |
| 2026-05-01 15:01 | 56.18198 | 92.47221 | 954 ft | 11 kts | 112° |
| 2026-05-01 15:02 | 56.18163 | 92.47373 | 953 ft | 15 kts | 112° |
| 2026-05-01 15:02 | 56.18135 | 92.47493 | 954 ft | 16 kts | 113° |
| 2026-05-01 15:02 | 56.18078 | 92.47721 | 956 ft | 14 kts | 124° |
| 2026-05-01 15:02 | 56.18031 | 92.47863 | 953 ft | 13 kts | 114° |
| 2026-05-01 15:03 | 56.18013 | 92.47933 | 954 ft | 2 kts | 115° |
| 2026-05-01 15:03 | 56.17991 | 92.47963 | 954 ft | 6 kts | 166° |
| 2026-05-01 15:03 | 56.17945 | 92.47936 | 956 ft | 11 kts | 204° |
| 2026-05-01 15:03 | 56.17867 | 92.47886 | 955 ft | 5 kts | 169° |
| 2026-05-01 15:04 | 56.17844 | 92.47940 | 954 ft | 9 kts | 115° |
| 2026-05-01 15:04 | 56.17819 | 92.48042 | 956 ft | 14 kts | 113° |
| 2026-05-01 15:04 | 56.17779 | 92.48209 | 955 ft | 17 kts | 113° |
| 2026-05-01 15:04 | 56.17732 | 92.48418 | 954 ft | 21 kts | 104° |
| 2026-05-01 15:05 | 56.17676 | 92.48672 | 956 ft | 23 kts | 113° |
| 2026-05-01 15:05 | 56.17615 | 92.48929 | 953 ft | 22 kts | 112° |
| 2026-05-01 15:05 | 56.17557 | 92.49180 | 954 ft | 21 kts | 113° |
| 2026-05-01 15:05 | 56.17499 | 92.49423 | 953 ft | 21 kts | 112° |
| 2026-05-01 15:06 | 56.17443 | 92.49660 | 952 ft | 20 kts | 113° |
| 2026-05-01 15:06 | 56.17388 | 92.49894 | 956 ft | 22 kts | 114° |
| 2026-05-01 15:06 | 56.17320 | 92.50175 | 956 ft | 28 kts | 113° |
| 2026-05-01 15:06 | 56.17237 | 92.50523 | 952 ft | 32 kts | 112° |
| 2026-05-01 15:07 | 56.17158 | 92.50855 | 954 ft | 25 kts | 113° |
| 2026-05-01 15:07 | 56.17091 | 92.51135 | 955 ft | 24 kts | 113° |
| 2026-05-01 15:07 | 56.17028 | 92.51399 | 954 ft | 23 kts | 113° |
| 2026-05-01 15:07 | 56.16969 | 92.51651 | 956 ft | 21 kts | 113° |
| 2026-05-01 15:08 | 56.16913 | 92.51886 | 954 ft | 19 kts | 112° |
| 2026-05-01 15:08 | 56.16844 | 92.52013 | 955 ft | 9 kts | 173° |
| 2026-05-01 15:08 | 56.16837 | 92.52014 | 954 ft | 0 kts | 173° |
| 2026-05-01 15:09 | 56.16834 | 92.52015 | 954 ft | 2 kts | 173° |
| 2026-05-01 15:09 | 56.16794 | 92.52023 | 954 ft | 10 kts | 173° |
| 2026-05-01 15:09 | 56.16701 | 92.52040 | 952 ft | 15 kts | 179° |
| 2026-05-01 15:09 | 56.16662 | 92.51976 | 954 ft | 5 kts | 275° |
| 2026-05-01 15:10 | 56.16676 | 92.51923 | 954 ft | 0 kts | 295° |
| 2026-05-01 15:11 | 56.16682 | 92.51899 | 953 ft | 13 kts | 295° |
| 2026-05-01 15:11 | 56.17165 | 92.49878 | 955 ft | 156 kts | 294° |
| 2026-05-01 15:11 | 56.17643 | 92.47960 | 1446 ft | 177 kts | 295° |
| 2026-05-01 15:12 | 56.18162 | 92.45847 | 2202 ft | 186 kts | 292° |
| 2026-05-01 15:12 | 56.19186 | 92.41457 | 3493 ft | 214 kts | 292° |
| 2026-05-01 15:12 | 56.19796 | 92.38851 | 3764 ft | 236 kts | 292° |
| 2026-05-01 15:13 | 56.21614 | 92.30749 | 5300 ft | 264 kts | 279° |
| 2026-05-01 15:14 | 56.20910 | 92.24298 | 7027 ft | 268 kts | 250° |
| 2026-05-01 15:14 | 56.20220 | 92.21167 | 7853 ft | 271 kts | 249° |
| 2026-05-01 15:14 | 56.18809 | 92.14895 | 9524 ft | 277 kts | 250° |
| 2026-05-01 15:15 | 56.17345 | 92.08313 | 10653 ft | 302 kts | 250° |
| 2026-05-01 15:15 | 56.15680 | 92.00747 | 11024 ft | 348 kts | 250° |
| 2026-05-01 15:16 | 56.13844 | 91.92416 | 12151 ft | 364 kts | 251° |
| 2026-05-01 15:16 | 56.11982 | 91.83990 | 13619 ft | 369 kts | 251° |
| 2026-05-01 15:17 | 56.10073 | 91.75364 | 14920 ft | 375 kts | 251° |
| 2026-05-01 15:18 | 56.07467 | 91.63645 | 16602 ft | 383 kts | 251° |
| 2026-05-01 15:18 | 56.06151 | 91.57747 | 17393 ft | 387 kts | 251° |
| 2026-05-01 15:19 | 56.03105 | 91.44166 | 19072 ft | 396 kts | 252° |
| 2026-05-01 15:19 | 56.01024 | 91.34934 | 20077 ft | 402 kts | 252° |
| 2026-05-01 15:19 | 55.99973 | 91.30285 | 20568 ft | 405 kts | 251° |
| 2026-05-01 15:20 | 55.97969 | 91.20875 | 21508 ft | 408 kts | 258° |
| 2026-05-01 15:20 | 55.97330 | 91.15929 | 21967 ft | 409 kts | 262° |
| 2026-05-01 15:20 | 55.96772 | 91.10910 | 22420 ft | 412 kts | 262° |
| 2026-05-01 15:21 | 55.96237 | 91.05930 | 22861 ft | 415 kts | 262° |
| 2026-05-01 15:21 | 55.95685 | 91.00856 | 23297 ft | 417 kts | 262° |
| 2026-05-01 15:21 | 55.95114 | 90.95754 | 23711 ft | 420 kts | 262° |
| 2026-05-01 15:21 | 55.94524 | 90.90621 | 24072 ft | 423 kts | 262° |
| 2026-05-01 15:22 | 55.93303 | 90.80302 | 24836 ft | 426 kts | 262° |
| 2026-05-01 15:22 | 55.92687 | 90.75176 | 25188 ft | 428 kts | 262° |
| 2026-05-01 15:22 | 55.92058 | 90.69981 | 25530 ft | 430 kts | 262° |
| 2026-05-01 15:23 | 55.91424 | 90.64760 | 25868 ft | 431 kts | 262° |
| 2026-05-01 15:23 | 55.90993 | 90.61222 | 26100 ft | 433 kts | 262° |
| 2026-05-01 15:23 | 55.90350 | 90.55962 | 26432 ft | 435 kts | 262° |
| 2026-05-01 15:23 | 55.89710 | 90.50741 | 26745 ft | 436 kts | 262° |
| 2026-05-01 15:24 | 55.89057 | 90.45432 | 27054 ft | 438 kts | 262° |
| 2026-05-01 15:24 | 55.88401 | 90.40115 | 27342 ft | 440 kts | 261° |
| 2026-05-01 15:24 | 55.87737 | 90.34763 | 27646 ft | 442 kts | 261° |
| 2026-05-01 15:24 | 55.87080 | 90.29479 | 27925 ft | 443 kts | 261° |
| 2026-05-01 15:25 | 55.86404 | 90.24070 | 28203 ft | 445 kts | 261° |
| 2026-05-01 15:25 | 55.85731 | 90.18698 | 28562 ft | 445 kts | 261° |
| 2026-05-01 15:25 | 55.85055 | 90.13340 | 29030 ft | 442 kts | 261° |
| 2026-05-01 15:25 | 55.84380 | 90.08009 | 29496 ft | 440 kts | 261° |
| 2026-05-01 15:26 | 55.83707 | 90.02701 | 29898 ft | 439 kts | 261° |
| 2026-05-01 15:26 | 55.83040 | 89.97459 | 30247 ft | 438 kts | 261° |
| 2026-05-01 15:26 | 55.82364 | 89.92170 | 30592 ft | 437 kts | 261° |
| 2026-05-01 15:26 | 55.81688 | 89.86898 | 30952 ft | 435 kts | 261° |
| 2026-05-01 15:27 | 55.81019 | 89.81701 | 31307 ft | 434 kts | 261° |
| 2026-05-01 15:27 | 55.80345 | 89.76480 | 31646 ft | 433 kts | 261° |
| 2026-05-01 15:27 | 55.79669 | 89.71264 | 31979 ft | 431 kts | 262° |
| 2026-05-01 15:28 | 55.78423 | 89.61702 | 32602 ft | 429 kts | 262° |
| 2026-05-01 15:28 | 55.77769 | 89.56701 | 32907 ft | 428 kts | 262° |
| 2026-05-01 15:28 | 55.77093 | 89.51555 | 33232 ft | 427 kts | 262° |
| 2026-05-01 15:29 | 55.75745 | 89.41349 | 33859 ft | 425 kts | 262° |
| 2026-05-01 15:29 | 55.75066 | 89.36236 | 34167 ft | 424 kts | 262° |
| 2026-05-01 15:29 | 55.73705 | 89.26029 | 34604 ft | 424 kts | 262° |
| 2026-05-01 15:30 | 55.72342 | 89.15880 | 35037 ft | 424 kts | 261° |
| 2026-05-01 15:31 | 55.69607 | 88.95715 | 35849 ft | 424 kts | 261° |
| 2026-05-01 15:31 | 55.68200 | 88.85411 | 36062 ft | 427 kts | 261° |
| 2026-05-01 15:32 | 55.65403 | 88.65103 | 36077 ft | 422 kts | 261° |
| 2026-05-01 15:34 | 55.61194 | 88.35014 | 36075 ft | 419 kts | 260° |